Time;durP1;ratioP1;P1;durP2;ratioP2;P2;SDS_P1;SDS_P2;PMS_P1;PMS_P2;Temp;Humidity;BMP_temperature;BMP_pressure;BME280_temperature;BME280_humidity;BME280_pressure;Samples;Min_cycle;Max_cycle;Signal;HPM_P1;HPM_P2
2022/03/13 00:01:01;;;;;;;14.48;6.93;;;3.70;45.80;;;;;;5048884;28;20346;-72
2022/03/13 00:03:28;;;;;;;16.70;7.88;;;3.70;46.00;;;;;;5043570;28;20428;-72
2022/03/13 00:05:54;;;;;;;15.20;6.25;;;3.60;45.70;;;;;;5048958;28;20032;-72
2022/03/13 00:08:28;;;;;;;19.58;7.10;;;3.60;46.10;;;;;;5048617;28;20029;-72
2022/03/13 00:11:05;;;;;;;14.38;6.93;;;3.60;45.90;;;;;;5048634;28;20040;-72
2022/03/13 00:13:34;;;;;;;13.57;8.20;;;3.60;46.20;;;;;;5048486;28;20025;-72
2022/03/13 00:16:03;;;;;;;14.93;7.47;;;3.60;46.20;;;;;;5048641;28;20025;-72
2022/03/13 00:18:32;;;;;;;10.27;7.40;;;3.60;46.30;;;;;;5048570;28;20029;-72
2022/03/13 00:20:58;;;;;;;10.30;6.53;;;3.60;46.10;;;;;;5048540;28;20068;-72
2022/03/13 00:23:23;;;;;;;;;;;3.60;46.30;;;;;;5048115;28;20049;-72
2022/03/13 00:25:49;;;;;;;10.63;6.00;;;3.60;46.30;;;;;;5048629;28;19948;-72
2022/03/13 00:28:14;;;;;;;11.02;7.13;;;3.60;46.50;;;;;;5047741;28;21035;-72
2022/03/13 00:30:41;;;;;;;12.98;6.35;;;3.60;46.40;;;;;;5048451;28;20556;-72
2022/03/13 00:33:07;;;;;;;12.48;7.97;;;3.60;46.20;;;;;;5047640;28;20489;-72
2022/03/13 00:35:33;;;;;;;14.55;6.47;;;3.60;46.00;;;;;;5047823;28;20114;-72
2022/03/13 00:37:59;;;;;;;10.02;7.15;;;3.60;45.90;;;;;;5048276;28;20428;-72
2022/03/13 00:40:26;;;;;;;11.50;6.00;;;3.60;45.90;;;;;;5048265;28;20040;-72
2022/03/13 00:42:51;;;;;;;12.80;6.90;;;3.50;46.00;;;;;;5052281;28;20029;-72
2022/03/13 00:45:17;;;;;;;9.77;6.55;;;3.50;46.10;;;;;;5052259;28;20036;-72
2022/03/13 00:47:43;;;;;;;11.88;5.90;;;3.50;46.40;;;;;;5052456;28;20044;-72
2022/03/13 00:50:09;;;;;;;10.85;6.32;;;3.50;46.30;;;;;;5052192;28;20032;-72
2022/03/13 00:52:35;;;;;;;10.23;6.75;;;3.50;46.20;;;;;;5052044;28;20094;-72
2022/03/13 00:55:00;;;;;;;13.77;8.32;;;3.40;46.00;;;;;;5052674;28;20104;-72
2022/03/13 00:57:26;;;;;;;11.23;6.78;;;3.40;46.20;;;;;;5051698;28;20493;-72
2022/03/13 00:59:51;;;;;;;13.25;7.10;;;3.40;46.20;;;;;;5051984;28;20082;-72
2022/03/13 01:02:17;;;;;;;15.43;7.32;;;3.40;46.00;;;;;;5051487;28;20120;-72
2022/03/13 01:04:43;;;;;;;9.63;6.53;;;3.40;46.30;;;;;;5051611;28;20139;-72
2022/03/13 01:07:08;;;;;;;11.70;6.07;;;3.30;46.30;;;;;;5051387;28;20095;-72
2022/03/13 01:09:34;;;;;;;15.82;9.65;;;3.30;46.00;;;;;;5051495;28;20416;-72
2022/03/13 01:12:00;;;;;;;17.25;6.15;;;3.40;46.40;;;;;;5051647;28;20512;-72
2022/03/13 01:14:26;;;;;;;21.23;7.70;;;3.30;46.10;;;;;;5050838;28;20042;-72
2022/03/13 01:17:06;;;;;;;12.70;6.55;;;3.30;46.10;;;;;;5051531;28;20111;-72
2022/03/13 01:19:32;;;;;;;12.98;7.60;;;3.30;46.50;;;;;;5050992;28;20036;-72
2022/03/13 01:21:58;;;;;;;9.40;5.80;;;3.20;46.60;;;;;;5051232;28;20029;-72
2022/03/13 01:24:29;;;;;;;9.55;5.82;;;3.20;46.70;;;;;;5050256;28;20033;-72
2022/03/13 01:27:01;;;;;;;14.98;7.30;;;3.10;46.60;;;;;;5050878;28;20112;-72
2022/03/13 01:29:27;;;;;;;10.80;6.90;;;3.10;46.60;;;;;;5050483;28;20100;-72
2022/03/13 01:31:53;;;;;;;10.48;6.22;;;3.00;47.10;;;;;;5050887;28;20028;-72
2022/03/13 01:34:38;;;;;;;10.40;6.10;;;2.90;47.20;;;;;;5051036;28;20033;-72
2022/03/13 01:37:06;;;;;;;14.73;6.32;;;2.90;47.30;;;;;;5051205;28;20102;-72
2022/03/13 01:39:31;;;;;;;14.98;8.68;;;2.90;47.40;;;;;;5050933;28;20060;-72
2022/03/13 01:41:57;;;;;;;8.90;5.43;;;2.90;47.20;;;;;;5051572;28;20110;-72
2022/03/13 01:44:22;;;;;;;10.15;6.18;;;3.00;46.90;;;;;;5051076;28;20024;-72
2022/03/13 01:46:48;;;;;;;12.05;7.00;;;2.90;46.90;;;;;;5051256;28;20032;-72
2022/03/13 01:49:15;;;;;;;;;;;2.90;47.00;;;;;;5051344;28;20028;-72
2022/03/13 01:51:40;;;;;;;12.13;6.93;;;2.90;47.00;;;;;;5050139;28;19912;-71
2022/03/13 01:54:09;;;;;;;10.68;6.55;;;2.90;46.90;;;;;;5051037;28;20112;-72
2022/03/13 01:56:36;;;;;;;10.75;6.18;;;2.90;46.60;;;;;;5050382;28;20036;-72
2022/03/13 01:59:04;;;;;;;10.75;6.35;;;2.90;46.50;;;;;;5050541;28;20063;-71
2022/03/13 02:01:29;;;;;;;14.57;6.68;;;2.80;46.90;;;;;;5050444;28;20124;-72
2022/03/13 02:03:56;;;;;;;9.90;6.07;;;2.80;47.40;;;;;;5050396;28;20117;-72
2022/03/13 02:06:26;;;;;;;14.50;7.45;;;2.70;46.80;;;;;;5049955;28;20045;-72
2022/03/13 02:08:52;;;;;;;17.65;8.05;;;2.70;46.90;;;;;;5050476;28;20029;-71
2022/03/13 02:11:19;;;;;;;9.45;6.55;;;2.60;47.00;;;;;;5049767;28;20025;-71
2022/03/13 02:13:53;;;;;;;13.48;6.22;;;2.60;47.20;;;;;;5050100;28;20067;-72
2022/03/13 02:16:20;;;;;;;9.55;7.25;;;2.60;47.40;;;;;;5049586;28;20052;-72
2022/03/13 02:18:51;;;;;;;14.50;8.52;;;2.50;47.60;;;;;;5050194;28;20025;-72
2022/03/13 02:21:18;;;;;;;10.95;7.15;;;2.40;47.80;;;;;;5049210;28;20025;-72
2022/03/13 02:23:43;;;;;;;10.10;6.60;;;2.40;48.00;;;;;;5049808;28;20048;-72
2022/03/13 02:26:09;;;;;;;17.00;7.05;;;2.40;48.50;;;;;;5049397;28;20501;-72
2022/03/13 02:28:50;;;;;;;11.93;8.07;;;2.30;48.80;;;;;;5049615;28;20505;-72
2022/03/13 02:31:19;;;;;;;11.90;6.35;;;2.30;48.50;;;;;;5049189;28;20029;-72
2022/03/13 02:33:45;;;;;;;13.95;6.35;;;2.20;49.50;;;;;;5050125;28;20059;-72
2022/03/13 02:36:43;;;;;;;10.77;6.75;;;2.10;49.00;;;;;;5050312;28;20052;-72
2022/03/13 02:39:10;;;;;;;10.60;6.85;;;2.00;49.70;;;;;;5006152;28;20033;-72
2022/03/13 02:41:37;;;;;;;11.27;7.07;;;2.00;50.00;;;;;;5050011;28;20111;-72
2022/03/13 02:44:06;;;;;;;10.15;6.32;;;2.00;50.30;;;;;;5049705;28;20070;-72
2022/03/13 02:46:49;;;;;;;12.80;6.45;;;2.00;50.20;;;;;;5049519;28;20061;-72
2022/03/13 02:49:17;;;;;;;11.05;7.10;;;2.00;50.10;;;;;;5049415;28;20021;-72
2022/03/13 02:51:43;;;;;;;8.63;5.47;;;2.00;49.70;;;;;;5049762;28;20419;-72
2022/03/13 02:54:09;;;;;;;8.95;5.43;;;2.10;49.40;;;;;;5049854;28;20052;-72
2022/03/13 02:56:35;;;;;;;10.60;6.30;;;2.20;49.30;;;;;;5049613;28;20485;-72
2022/03/13 02:59:00;;;;;;;11.68;6.78;;;2.20;49.40;;;;;;5049789;28;20029;-72
2022/03/13 03:01:26;;;;;;;10.20;6.10;;;2.20;48.60;;;;;;5049170;28;20016;-72
2022/03/13 03:04:00;;;;;;;10.15;7.57;;;2.20;49.10;;;;;;5048910;28;20032;-72
2022/03/13 03:06:29;;;;;;;14.27;7.85;;;2.20;48.60;;;;;;5048931;28;20568;-72
2022/03/13 03:08:55;;;;;;;11.18;6.45;;;2.20;49.00;;;;;;5049324;28;20067;-72
2022/03/13 03:11:21;;;;;;;12.85;6.75;;;2.20;48.90;;;;;;5048474;28;20486;-72
2022/03/13 03:13:46;;;;;;;11.48;6.93;;;2.10;49.40;;;;;;5049509;28;20029;-72
2022/03/13 03:16:12;;;;;;;10.15;6.65;;;2.10;48.80;;;;;;5048973;28;20284;-72
2022/03/13 03:18:37;;;;;;;16.60;7.15;;;2.10;49.10;;;;;;5049024;28;20079;-72
2022/03/13 03:21:03;;;;;;;12.82;7.15;;;2.10;48.90;;;;;;5048865;28;20032;-72
2022/03/13 03:23:29;;;;;;;10.60;6.35;;;2.20;48.90;;;;;;5048695;28;20348;-72
2022/03/13 03:25:54;;;;;;;15.07;6.65;;;2.20;48.70;;;;;;5049163;28;20029;-72
2022/03/13 03:28:21;;;;;;;11.45;6.13;;;2.20;48.60;;;;;;5049008;28;20416;-72
2022/03/13 03:30:47;;;;;;;9.40;6.45;;;2.20;48.20;;;;;;5049727;28;20029;-72
2022/03/13 03:33:12;;;;;;;11.50;6.10;;;2.20;48.40;;;;;;5048983;28;20055;-72
2022/03/13 03:35:38;;;;;;;10.10;5.93;;;2.20;48.20;;;;;;5049705;28;20021;-72
2022/03/13 03:38:03;;;;;;;13.40;5.43;;;2.20;48.30;;;;;;5049073;28;20071;-72
2022/03/13 03:40:31;;;;;;;15.07;5.95;;;2.30;47.90;;;;;;5049226;28;20065;-72
2022/03/13 03:42:58;;;;;;;10.60;5.63;;;2.20;47.90;;;;;;5049250;28;20021;-72
2022/03/13 03:45:24;;;;;;;11.38;5.63;;;2.20;48.00;;;;;;5048928;28;20389;-72
2022/03/13 03:47:50;;;;;;;11.63;7.07;;;2.20;47.80;;;;;;5049330;28;20025;-72
2022/03/13 03:50:17;;;;;;;14.88;6.80;;;2.20;47.70;;;;;;5048301;28;20513;-72
2022/03/13 03:52:44;;;;;;;;;;;2.20;48.80;;;;;;5049473;28;20442;-72
2022/03/13 03:55:09;;;;;;;11.65;6.72;;;2.20;47.90;;;;;;5048867;28;20345;-72
2022/03/13 03:57:35;;;;;;;11.23;7.20;;;2.20;48.10;;;;;;5048854;28;20033;-72
2022/03/13 04:00:01;;;;;;;9.32;5.28;;;2.20;48.20;;;;;;5049022;28;20021;-72
2022/03/13 04:02:26;;;;;;;10.82;5.88;;;2.20;47.90;;;;;;5048434;28;20025;-72
2022/03/13 04:04:52;;;;;;;12.77;6.65;;;2.20;48.50;;;;;;5049025;28;20025;-72
2022/03/13 04:07:18;;;;;;;8.68;5.43;;;2.20;48.30;;;;;;5048288;28;20374;-72
2022/03/13 04:09:43;;;;;;;;;;;2.20;48.30;;;;;;5049240;28;20044;-72
2022/03/13 04:12:09;;;;;;;12.65;6.47;;;2.20;48.10;;;;;;5048373;28;20289;-72
2022/03/13 04:14:35;;;;;;;13.23;6.18;;;2.20;48.10;;;;;;5048462;28;20029;-72
2022/03/13 04:17:01;;;;;;;9.77;5.63;;;2.10;48.10;;;;;;5052538;28;20033;-72
2022/03/13 04:19:27;;;;;;;12.75;7.22;;;2.00;48.80;;;;;;5051846;28;20110;-72
2022/03/13 04:21:54;;;;;;;16.75;7.80;;;2.00;48.80;;;;;;5052413;28;20029;-72
2022/03/13 04:24:20;;;;;;;12.85;8.02;;;2.00;48.80;;;;;;5051634;28;20122;-72
2022/03/13 04:26:46;;;;;;;10.30;6.13;;;1.90;48.70;;;;;;5052102;28;20664;-72
2022/03/13 04:29:12;;;;;;;13.20;6.95;;;1.80;49.30;;;;;;5051460;28;20021;-72
2022/03/13 04:31:40;;;;;;;12.68;7.47;;;1.80;49.30;;;;;;5052887;28;20039;-72
2022/03/13 04:34:05;;;;;;;8.40;5.28;;;1.70;49.10;;;;;;5052615;28;20083;-72
2022/03/13 04:36:35;;;;;;;10.75;6.55;;;1.70;49.50;;;;;;5052810;28;20049;-72
2022/03/13 04:39:01;;;;;;;11.38;6.35;;;1.70;49.50;;;;;;5052672;28;20028;-72
2022/03/13 04:41:27;;;;;;;12.80;7.53;;;1.60;49.80;;;;;;5052109;28;20414;-72
2022/03/13 04:43:53;;;;;;;10.18;6.43;;;1.60;50.30;;;;;;5052483;28;20437;-72
2022/03/13 04:46:19;;;;;;;12.75;6.68;;;1.50;50.40;;;;;;5051689;28;20087;-72
2022/03/13 04:48:45;;;;;;;9.52;5.75;;;1.50;50.30;;;;;;5052457;28;20220;-72
2022/03/13 04:51:11;;;;;;;13.32;8.32;;;1.40;50.40;;;;;;5060450;22;20067;-69
2022/03/13 04:53:37;;;;;;;12.07;6.47;;;1.40;50.50;;;;;;5041996;28;20500;-70
2022/03/13 04:56:03;;;;;;;10.15;6.82;;;1.40;50.70;;;;;;5042196;28;20029;-70
2022/03/13 04:58:28;;;;;;;10.77;5.72;;;1.40;50.50;;;;;;5042288;28;20477;-70
2022/03/13 05:00:54;;;;;;;9.57;5.63;;;1.40;50.40;;;;;;5042207;28;20012;-70
2022/03/13 05:03:20;;;;;;;13.23;5.97;;;1.40;50.40;;;;;;5041461;28;20079;-70
2022/03/13 05:05:45;;;;;;;12.63;6.55;;;1.40;50.30;;;;;;5041594;28;20120;-70
2022/03/13 05:08:15;;;;;;;14.30;6.93;;;1.40;50.50;;;;;;5041585;28;20036;-70
2022/03/13 05:10:42;;;;;;;9.25;6.25;;;1.40;50.60;;;;;;5041623;28;20018;-70
2022/03/13 05:13:11;;;;;;;14.18;6.60;;;1.50;50.70;;;;;;5040681;28;20477;-70
2022/03/13 05:15:38;;;;;;;13.43;6.80;;;1.40;50.80;;;;;;5041292;28;20013;-70
2022/03/13 05:18:04;;;;;;;10.25;5.93;;;1.50;50.20;;;;;;5041097;28;20054;-70
2022/03/13 05:20:31;;;;;;;13.88;5.60;;;1.50;50.50;;;;;;5040803;28;20142;-70
2022/03/13 05:22:57;;;;;;;16.70;8.23;;;1.50;50.20;;;;;;5040560;28;20436;-70
2022/03/13 05:25:24;;;;;;;14.43;6.10;;;1.50;50.60;;;;;;5040724;28;20109;-70
2022/03/13 05:27:50;;;;;;;13.70;6.47;;;1.50;50.60;;;;;;5040325;28;20482;-70
2022/03/13 05:30:16;;;;;;;11.40;5.88;;;1.50;50.10;;;;;;5040231;28;20030;-70
2022/03/13 05:32:42;;;;;;;9.57;5.32;;;1.50;50.50;;;;;;5040656;28;20023;-70
2022/03/13 05:35:07;;;;;;;11.90;6.35;;;1.50;50.20;;;;;;5041724;28;20385;-70
2022/03/13 05:37:33;;;;;;;13.10;6.35;;;1.50;50.30;;;;;;5041340;28;20033;-70
2022/03/13 05:39:58;;;;;;;13.25;5.82;;;1.50;50.40;;;;;;5041508;28;20099;-70
2022/03/13 05:42:25;;;;;;;24.63;13.45;;;1.50;50.40;;;;;;5040933;28;20466;-70
2022/03/13 05:44:52;;;;;;;20.98;10.50;;;1.50;50.70;;;;;;5041198;28;20025;-70
2022/03/13 05:47:18;;;;;;;15.52;8.73;;;1.40;50.70;;;;;;5041195;28;20024;-70
2022/03/13 05:49:44;;;;;;;13.73;7.43;;;1.40;50.70;;;;;;5041017;28;20022;-70
2022/03/13 05:52:15;;;;;;;9.90;5.10;;;1.40;50.80;;;;;;5021799;28;20030;-70
2022/03/13 05:54:41;;;;;;;17.38;8.23;;;1.30;50.90;;;;;;5021574;28;20029;-70
2022/03/13 05:57:08;;;;;;;9.93;6.25;;;1.30;51.00;;;;;;5021472;28;20034;-71
2022/03/13 05:59:35;;;;;;;8.88;6.00;;;1.30;51.30;;;;;;5021140;28;20025;-70
2022/03/13 06:02:02;;;;;;;10.98;7.05;;;1.20;51.60;;;;;;5021223;28;20537;-70
2022/03/13 06:04:28;;;;;;;11.63;6.95;;;1.20;51.70;;;;;;5021426;28;20052;-70
2022/03/13 06:06:54;;;;;;;13.18;6.97;;;1.20;51.60;;;;;;5021145;28;20025;-71
2022/03/13 06:09:19;;;;;;;12.40;6.90;;;1.20;51.70;;;;;;5021134;28;20036;-70
2022/03/13 06:11:45;;;;;;;10.15;5.97;;;1.20;51.90;;;;;;5021017;28;20017;-70
2022/03/13 06:14:10;;;;;;;11.18;6.50;;;1.20;51.90;;;;;;5021243;28;20029;-70
2022/03/13 06:16:36;;;;;;;10.52;5.88;;;1.20;51.90;;;;;;5021192;28;20029;-70
2022/03/13 06:19:01;;;;;;;10.18;5.82;;;1.30;52.50;;;;;;5021119;28;20112;-70
2022/03/13 06:21:27;;;;;;;13.18;5.68;;;1.30;52.60;;;;;;5020567;28;20394;-70
2022/03/13 06:23:52;;;;;;;10.90;6.70;;;1.40;51.90;;;;;;5020779;28;20470;-70
2022/03/13 06:26:18;;;;;;;14.23;6.28;;;1.50;51.00;;;;;;5020897;28;20393;-70
2022/03/13 06:28:44;;;;;;;14.77;7.15;;;1.60;51.20;;;;;;5020747;28;20018;-71
2022/03/13 06:31:10;;;;;;;9.88;5.50;;;1.60;50.40;;;;;;5021194;28;20109;-70
2022/03/13 06:33:35;;;;;;;12.88;6.30;;;1.70;50.30;;;;;;5020952;28;20017;-70
2022/03/13 06:36:01;;;;;;;12.52;7.03;;;1.70;50.20;;;;;;5020600;28;20375;-70
2022/03/13 06:38:27;;;;;;;11.43;5.82;;;1.80;50.00;;;;;;5020596;28;20084;-70
2022/03/13 06:40:52;;;;;;;10.77;6.35;;;1.80;50.20;;;;;;5020564;28;20040;-70
2022/03/13 06:43:18;;;;;;;9.32;4.90;;;1.90;50.30;;;;;;5020585;28;20029;-70
2022/03/13 06:45:44;;;;;;;11.98;5.60;;;2.00;50.40;;;;;;5020397;28;20033;-70
2022/03/13 06:48:11;;;;;;;11.60;5.65;;;2.10;49.50;;;;;;5020599;28;20474;-70
2022/03/13 06:50:37;;;;;;;8.48;5.55;;;2.10;49.40;;;;;;5027019;28;20393;-70
2022/03/13 06:53:02;;;;;;;11.68;6.40;;;2.10;49.20;;;;;;5039820;28;20025;-70
2022/03/13 06:55:28;;;;;;;14.15;6.82;;;2.20;49.60;;;;;;5039887;28;20078;-70
2022/03/13 06:57:54;;;;;;;10.93;5.88;;;2.20;49.70;;;;;;5039646;28;20043;-70
2022/03/13 07:00:20;;;;;;;14.73;7.82;;;2.30;49.70;;;;;;5039628;28;20068;-70
2022/03/13 07:02:45;;;;;;;9.52;5.43;;;2.40;50.00;;;;;;5039444;28;20013;-70
2022/03/13 07:05:11;;;;;;;9.88;4.85;;;2.40;49.50;;;;;;5039794;28;20032;-70
2022/03/13 07:07:37;;;;;;;10.20;5.60;;;2.40;49.20;;;;;;5038977;28;20052;-70
2022/03/13 07:10:04;;;;;;;13.40;5.80;;;2.50;48.70;;;;;;5039196;28;20394;-70
2022/03/13 07:12:29;;;;;;;14.25;6.60;;;2.60;48.60;;;;;;5039089;28;20079;-70
2022/03/13 07:14:57;;;;;;;12.60;6.20;;;2.70;48.40;;;;;;5039178;28;20025;-70
2022/03/13 07:17:23;;;;;;;8.40;5.90;;;2.80;48.40;;;;;;5038998;28;20026;-70
2022/03/13 07:19:49;;;;;;;8.65;5.18;;;2.90;47.90;;;;;;5039080;28;20047;-70
2022/03/13 07:22:15;;;;;;;10.25;4.78;;;3.00;47.60;;;;;;5038342;28;20108;-70
2022/03/13 07:24:43;;;;;;;8.30;5.32;;;3.10;47.50;;;;;;5038846;28;20441;-71
2022/03/13 07:27:09;;;;;;;12.85;5.13;;;3.20;47.20;;;;;;5038150;28;20025;-71
2022/03/13 07:29:34;;;;;;;;;;;3.30;46.80;;;;;;5039159;28;20059;-71
2022/03/13 07:32:00;;;;;;;9.48;5.32;;;3.40;46.50;;;;;;5039896;28;20802;-71
2022/03/13 07:34:27;;;;;;;13.18;5.70;;;3.60;46.70;;;;;;5039578;28;20474;-71
2022/03/13 07:36:53;;;;;;;9.82;5.63;;;3.70;45.10;;;;;;5039665;28;20493;-71
2022/03/13 07:39:21;;;;;;;8.30;4.53;;;3.80;45.10;;;;;;5039457;28;20041;-71
2022/03/13 07:41:47;;;;;;;7.82;4.18;;;3.90;45.00;;;;;;5039122;28;20043;-71
2022/03/13 07:44:12;;;;;;;;;;;4.00;44.20;;;;;;5039498;28;20029;-71
2022/03/13 07:46:38;;;;;;;9.65;5.03;;;4.10;43.60;;;;;;5039264;28;19909;-71
2022/03/13 07:49:04;;;;;;;8.23;5.53;;;4.20;43.90;;;;;;5038692;28;20068;-71
2022/03/13 07:51:29;;;;;;;8.43;5.20;;;4.30;44.20;;;;;;5042601;28;20061;-71
2022/03/13 07:53:55;;;;;;;6.90;5.00;;;4.30;44.20;;;;;;5042731;28;20017;-71
2022/03/13 07:56:22;;;;;;;12.32;4.90;;;4.40;43.90;;;;;;5042864;28;20038;-71
2022/03/13 07:58:48;;;;;;;9.35;5.28;;;4.40;44.00;;;;;;5042939;28;20031;-71
2022/03/13 08:01:13;;;;;;;8.27;4.97;;;4.40;44.10;;;;;;5042478;28;20037;-71
2022/03/13 08:03:44;;;;;;;10.00;4.22;;;4.50;43.30;;;;;;5042764;28;20025;-71
2022/03/13 08:06:10;;;;;;;9.65;4.72;;;4.60;42.60;;;;;;5042402;28;20029;-71
2022/03/13 08:08:35;;;;;;;11.60;6.07;;;4.60;43.00;;;;;;5042832;28;20050;-71
2022/03/13 08:11:01;;;;;;;14.45;4.40;;;4.70;42.50;;;;;;5042570;28;20035;-71
2022/03/13 08:13:27;;;;;;;10.43;5.70;;;4.70;43.00;;;;;;5042440;28;20079;-71
2022/03/13 08:15:52;;;;;;;8.65;5.00;;;4.80;43.00;;;;;;5042353;28;20048;-71
2022/03/13 08:18:18;;;;;;;7.43;5.43;;;4.80;42.60;;;;;;5042287;28;20032;-71
2022/03/13 08:20:44;;;;;;;12.02;6.15;;;4.90;42.70;;;;;;5042161;28;20427;-71
2022/03/13 08:23:09;;;;;;;8.98;5.03;;;5.00;42.80;;;;;;5041830;28;20458;-71
2022/03/13 08:25:35;;;;;;;11.05;6.13;;;5.10;43.20;;;;;;5042150;28;20056;-71
2022/03/13 08:28:01;;;;;;;7.30;5.10;;;5.10;43.00;;;;;;5042176;28;20477;-71
2022/03/13 08:30:27;;;;;;;9.20;4.85;;;5.20;42.90;;;;;;5041731;28;20288;-71
2022/03/13 08:32:52;;;;;;;8.57;5.78;;;5.30;43.00;;;;;;5043160;28;20025;-71
2022/03/13 08:35:18;;;;;;;10.07;5.20;;;5.40;42.70;;;;;;5042288;28;20021;-71
2022/03/13 08:37:44;;;;;;;7.80;4.85;;;5.40;42.70;;;;;;5042491;28;20021;-71
2022/03/13 08:40:11;;;;;;;11.73;5.05;;;5.60;42.70;;;;;;5042206;28;20124;-71
2022/03/13 08:42:36;;;;;;;8.77;4.70;;;5.60;42.20;;;;;;5041891;28;20162;-71
2022/03/13 08:45:02;;;;;;;5.72;4.68;;;5.70;42.00;;;;;;5042144;28;20057;-71
2022/03/13 08:47:28;;;;;;;9.23;4.47;;;5.80;42.50;;;;;;5042070;28;20409;-72
2022/03/13 08:49:54;;;;;;;7.57;4.63;;;5.90;42.40;;;;;;5041966;28;20029;-71
2022/03/13 08:52:21;;;;;;;8.30;5.57;;;5.90;41.00;;;;;;5041916;28;20045;-71
2022/03/13 08:54:46;;;;;;;8.38;5.30;;;6.00;41.10;;;;;;5041653;28;20025;-71
2022/03/13 08:57:12;;;;;;;8.15;4.35;;;6.20;41.10;;;;;;5041885;28;20316;-71
2022/03/13 08:59:38;;;;;;;8.30;4.30;;;6.30;41.20;;;;;;5041766;28;20041;-72
2022/03/13 09:02:05;;;;;;;9.18;4.47;;;6.50;39.90;;;;;;5040308;28;20505;-71
2022/03/13 09:04:31;;;;;;;8.25;4.55;;;6.60;40.60;;;;;;5041868;28;20048;-71
2022/03/13 09:06:57;;;;;;;;;;;6.70;39.40;;;;;;5041904;28;20403;-71
2022/03/13 09:09:23;;;;;;;7.75;4.22;;;6.80;38.90;;;;;;5041527;28;19921;-72
2022/03/13 09:11:50;;;;;;;10.02;6.55;;;6.90;38.70;;;;;;5041287;28;20036;-71
2022/03/13 09:14:16;;;;;;;5.18;3.90;;;7.00;38.00;;;;;;5041121;28;20402;-71
2022/03/13 09:16:42;;;;;;;9.25;4.82;;;7.20;38.10;;;;;;5041440;28;20025;-71
2022/03/13 09:19:08;;;;;;;;;;;7.30;37.40;;;;;;5041482;28;20543;-71
2022/03/13 09:21:34;;;;;;;7.78;4.70;;;7.30;37.60;;;;;;5041408;28;19909;-72
2022/03/13 09:24:01;;;;;;;8.55;4.40;;;7.50;37.90;;;;;;5040384;28;20493;-72
2022/03/13 09:26:27;;;;;;;8.85;5.05;;;7.60;37.70;;;;;;5040524;28;20029;-71
2022/03/13 09:28:52;;;;;;;8.05;4.47;;;7.70;38.20;;;;;;5040901;28;20568;-71
2022/03/13 09:31:18;;;;;;;7.35;3.97;;;7.80;38.00;;;;;;5040529;28;20037;-71
2022/03/13 09:33:43;;;;;;;10.07;4.90;;;8.00;37.30;;;;;;5041481;28;20020;-71
2022/03/13 09:36:09;;;;;;;8.98;4.93;;;8.00;38.00;;;;;;5041290;28;20113;-71
2022/03/13 09:38:34;;;;;;;7.03;5.32;;;8.20;37.70;;;;;;5041646;28;20017;-72
2022/03/13 09:41:00;;;;;;;8.70;3.95;;;8.20;37.20;;;;;;5041216;28;20477;-71
2022/03/13 09:43:26;;;;;;;7.45;4.65;;;8.30;37.80;;;;;;5041195;28;20493;-72
2022/03/13 09:45:52;;;;;;;10.18;4.82;;;8.30;38.20;;;;;;5040702;28;20394;-71
2022/03/13 09:48:18;;;;;;;;;;;8.40;37.20;;;;;;5041722;28;20028;-71
2022/03/13 09:50:45;;;;;;;8.85;5.53;;;8.50;37.20;;;;;;5040842;28;19937;-72
2022/03/13 09:53:11;;;;;;;;;;;8.50;37.80;;;;;;5041021;28;20501;-72
2022/03/13 09:55:37;;;;;;;16.60;8.05;;;8.70;38.10;;;;;;5040778;28;19909;-72
2022/03/13 09:58:04;;;;;;;9.07;5.38;;;8.80;37.70;;;;;;5040833;28;20375;-72
2022/03/13 10:00:31;;;;;;;8.90;5.43;;;9.00;37.80;;;;;;5040651;28;20017;-71
2022/03/13 10:02:57;;;;;;;7.95;4.80;;;9.10;36.60;;;;;;5040387;28;20017;-72
2022/03/13 10:05:24;;;;;;;10.35;6.47;;;9.20;37.10;;;;;;5040075;28;20049;-72
2022/03/13 10:08:02;;;;;;;17.13;5.03;;;9.20;37.30;;;;;;5040007;28;20025;-71
2022/03/13 10:10:42;;;;;;;8.85;5.22;;;9.30;36.70;;;;;;5040496;28;20028;-72
2022/03/13 10:13:09;;;;;;;11.77;5.68;;;9.40;36.30;;;;;;5039392;28;20024;-72
2022/03/13 10:15:46;;;;;;;10.00;5.07;;;9.40;36.90;;;;;;5040367;28;20389;-72
2022/03/13 10:18:20;;;;;;;7.88;5.35;;;9.40;37.60;;;;;;5039687;28;20139;-72
2022/03/13 10:20:47;;;;;;;12.35;5.72;;;9.50;37.60;;;;;;5039734;28;20025;-72
2022/03/13 10:23:19;;;;;;;10.60;4.88;;;9.60;37.50;;;;;;5039611;28;20025;-72
2022/03/13 10:25:47;;;;;;;6.60;5.63;;;9.70;37.10;;;;;;5039486;28;20102;-71
2022/03/13 10:28:36;;;;;;;8.35;5.00;;;9.80;37.20;;;;;;5039202;28;20489;-70
2022/03/13 10:31:02;;;;;;;7.72;5.60;;;9.90;37.70;;;;;;5039606;28;20021;-71
2022/03/13 10:33:47;;;;;;;7.07;4.90;;;10.00;37.60;;;;;;5040654;28;20104;-71
2022/03/13 10:36:44;;;;;;;10.63;6.72;;;10.10;37.00;;;;;;5039748;28;20033;-71
2022/03/13 10:39:17;;;;;;;8.85;5.82;;;10.10;36.90;;;;;;5039588;28;20044;-71
2022/03/13 10:41:44;;;;;;;8.77;4.82;;;10.20;36.90;;;;;;5040042;28;20041;-71
2022/03/13 10:44:22;;;;;;;11.98;5.82;;;10.30;36.60;;;;;;5040039;28;20034;-71
2022/03/13 10:47:04;;;;;;;10.93;4.68;;;10.20;36.40;;;;;;5040174;28;20083;-71
2022/03/13 10:49:36;;;;;;;9.30;5.65;;;10.20;36.80;;;;;;5040313;28;20009;-71
2022/03/13 10:52:22;;;;;;;9.30;5.72;;;10.10;36.80;;;;;;5053298;23;20107;-74
2022/03/13 10:54:48;;;;;;;6.35;5.10;;;10.20;38.10;;;;;;5040538;28;20029;-75
2022/03/13 10:57:13;;;;;;;8.98;5.43;;;10.30;37.30;;;;;;5039600;28;20017;-75
2022/03/13 10:59:43;;;;;;;8.27;5.50;;;10.40;37.10;;;;;;5040403;28;20022;-75
2022/03/13 11:02:14;;;;;;;7.35;5.35;;;10.60;37.80;;;;;;5039865;28;20022;-75
2022/03/13 11:04:57;;;;;;;5.85;5.03;;;10.80;36.80;;;;;;5040301;28;20389;-75
2022/03/13 11:07:24;;;;;;;9.13;4.80;;;11.00;36.70;;;;;;5039853;28;20545;-75
2022/03/13 11:09:49;;;;;;;7.93;4.95;;;11.10;37.00;;;;;;5039824;28;20059;-75
2022/03/13 11:12:20;;;;;;;;;;;11.20;36.80;;;;;;5040099;28;20049;-75
2022/03/13 11:14:51;;;;;;;7.05;4.25;;;11.20;36.00;;;;;;5039935;28;20426;-76
2022/03/13 11:17:20;;;;;;;7.22;4.40;;;11.20;36.20;;;;;;5039484;28;20378;-75
2022/03/13 11:19:51;;;;;;;11.70;4.78;;;11.20;36.00;;;;;;5039843;28;20025;-75
2022/03/13 11:22:20;;;;;;;11.57;6.18;;;11.20;36.10;;;;;;5039418;28;20028;-75
2022/03/13 11:24:46;;;;;;;10.30;5.32;;;11.30;36.40;;;;;;5038975;28;20096;-75
2022/03/13 11:27:13;;;;;;;8.80;6.10;;;11.40;36.20;;;;;;5039347;28;20482;-75
2022/03/13 11:29:54;;;;;;;7.00;4.90;;;11.50;36.20;;;;;;5039900;28;20048;-75
2022/03/13 11:32:46;;;;;;;10.23;5.20;;;11.50;34.90;;;;;;5039357;28;20071;-75
2022/03/13 11:35:15;;;;;;;7.68;5.43;;;11.50;35.10;;;;;;5039178;28;20044;-75
2022/03/13 11:37:42;;;;;;;11.60;8.27;;;11.50;35.70;;;;;;5039822;28;20020;-75
2022/03/13 11:40:09;;;;;;;9.80;6.53;;;11.60;35.90;;;;;;5039088;28;20032;-75
2022/03/13 11:43:03;;;;;;;10.20;7.88;;;11.70;35.10;;;;;;5039591;28;20501;-75
2022/03/13 11:45:30;;;;;;;11.10;5.20;;;11.80;35.70;;;;;;5039639;28;20029;-76
2022/03/13 11:48:04;;;;;;;7.50;5.20;;;12.00;34.70;;;;;;5039252;28;20402;-75
2022/03/13 11:50:51;;;;;;;7.13;4.50;;;12.00;35.50;;;;;;5041595;28;20032;-76
2022/03/13 11:53:17;;;;;;;6.63;4.77;;;12.00;34.50;;;;;;5058809;28;20048;-76
2022/03/13 11:56:03;;;;;;;7.13;5.13;;;12.00;35.00;;;;;;5059594;28;20028;-75
2022/03/13 11:58:48;;;;;;;12.15;6.18;;;12.00;34.90;;;;;;5059357;28;20025;-75
2022/03/13 12:01:20;;;;;;;5.47;4.93;;;12.10;34.30;;;;;;5058492;28;20050;-75
2022/03/13 12:04:04;;;;;;;8.50;5.80;;;12.20;35.30;;;;;;5059344;28;20018;-75
2022/03/13 12:06:46;;;;;;;7.07;4.43;;;12.30;34.70;;;;;;5058934;28;20032;-75
2022/03/13 12:09:30;;;;;;;5.25;4.60;;;12.40;34.10;;;;;;5058728;28;20512;-76
2022/03/13 12:11:56;;;;;;;7.55;4.40;;;12.50;33.90;;;;;;5058873;28;20021;-76
2022/03/13 12:14:42;;;;;;;;;;;12.50;34.20;;;;;;5059800;28;20032;-75
2022/03/13 12:17:08;;;;;;;9.38;5.45;;;12.50;33.90;;;;;;5058984;28;19900;-75
2022/03/13 12:19:44;;;;;;;6.72;4.50;;;12.60;34.00;;;;;;5059153;28;20032;-75
2022/03/13 12:22:10;;;;;;;6.38;4.88;;;12.60;34.60;;;;;;5058735;28;20119;-75
2022/03/13 12:24:36;;;;;;;;;;;12.70;34.10;;;;;;5059146;28;20107;-75
2022/03/13 12:27:03;;;;;;;10.05;4.28;;;12.70;33.50;;;;;;5059161;28;19913;-76
2022/03/13 12:29:32;;;;;;;12.95;7.38;;;12.80;32.50;;;;;;5059479;28;20024;-77
2022/03/13 12:32:00;;;;;;;8.20;4.57;;;12.80;32.50;;;;;;5059195;28;20475;-75
2022/03/13 12:34:27;;;;;;;5.90;5.13;;;12.90;33.50;;;;;;5058752;28;20043;-75
2022/03/13 12:36:53;;;;;;;7.97;4.55;;;12.90;32.50;;;;;;5061599;28;20068;-75
2022/03/13 12:39:19;;;;;;;6.55;4.07;;;12.90;32.40;;;;;;5062145;28;20036;-75
2022/03/13 12:41:54;;;;;;;8.85;5.63;;;13.00;33.00;;;;;;5062699;28;20031;-75
2022/03/13 12:44:21;;;;;;;6.32;4.78;;;13.00;31.90;;;;;;5062205;28;20031;-75
2022/03/13 12:46:51;;;;;;;20.40;13.13;;;13.10;32.20;;;;;;5062369;28;20029;-76
2022/03/13 12:49:19;;;;;;;8.57;4.72;;;13.20;32.90;;;;;;5062782;28;20025;-76
2022/03/13 12:51:51;;;;;;;9.75;7.25;;;13.20;33.40;;;;;;5062069;28;20074;-76
2022/03/13 12:54:16;;;;;;;10.32;5.45;;;13.30;33.30;;;;;;5061685;28;20104;-76
2022/03/13 12:56:45;;;;;;;;;;;13.30;31.90;;;;;;5063045;28;20603;-76